Time;durP1;ratioP1;P1;durP2;ratioP2;P2;SDS_P1;SDS_P2;PMS_P1;PMS_P2;Temp;Humidity;BMP_temperature;BMP_pressure;BME280_temperature;BME280_humidity;BME280_pressure;Samples;Min_cycle;Max_cycle;Signal;HPM_P1;HPM_P2
2022/09/19 00:00:33;;;;;;;;;;;19.00;86.50;;;;;;5114584;28;19911;-50
2022/09/19 00:02:59;;;;;;;;;;;19.00;86.70;;;;;;5114403;28;19903;-51
2022/09/19 00:05:24;;;;;;;;;;;19.00;86.60;;;;;;5114566;28;19908;-51
2022/09/19 00:07:50;;;;;;;;;;;19.00;86.70;;;;;;5114454;28;19908;-50
2022/09/19 00:10:15;;;;;;;;;;;19.00;86.60;;;;;;5114281;28;19903;-51
2022/09/19 00:12:41;;;;;;;;;;;18.90;86.80;;;;;;5118236;28;19907;-50
2022/09/19 00:15:07;;;;;;;;;;;19.00;86.60;;;;;;5118472;28;19931;-51
2022/09/19 00:17:33;;;;;;;;;;;18.90;86.60;;;;;;5118696;28;19911;-48
2022/09/19 00:19:58;;;;;;;;;;;19.00;86.60;;;;;;5118391;28;19904;-50
2022/09/19 00:22:24;;;;;;;;;;;19.00;86.70;;;;;;5118445;28;19904;-49
2022/09/19 00:24:49;;;;;;;;;;;19.00;86.60;;;;;;5118224;28;19970;-52
2022/09/19 00:27:19;;;;;;;;;;;18.90;86.50;;;;;;5118075;28;19941;-52
2022/09/19 00:29:45;;;;;;;;;;;18.90;86.60;;;;;;5100013;28;19911;-53
2022/09/19 00:32:15;;;;;;;;;;;18.90;86.60;;;;;;5118355;28;19904;-51
2022/09/19 00:34:42;;;;;;;;;;;18.90;86.60;;;;;;5099851;28;19922;-53
2022/09/19 00:37:07;;;;;;;;;;;18.90;86.80;;;;;;5102324;28;20369;-50
2022/09/19 00:39:33;;;;;;;;;;;18.90;86.60;;;;;;5097764;28;19944;-50
2022/09/19 00:41:59;;;;;;;;;;;18.90;86.70;;;;;;5097279;28;19911;-50
2022/09/19 00:44:24;;;;;;;;;;;18.90;86.70;;;;;;5097467;28;19958;-51
2022/09/19 00:46:49;;;;;;;;;;;18.90;86.80;;;;;;5097109;28;19904;-52
2022/09/19 00:49:15;;;;;;;;;;;18.80;86.60;;;;;;5097448;28;20346;-48
2022/09/19 00:51:45;;;;;;;;;;;18.90;86.80;;;;;;5097387;28;20037;-50
2022/09/19 00:54:13;;;;;;;;;;;18.90;86.80;;;;;;5097324;28;19915;-49
2022/09/19 00:56:44;;;;;;;;;;;18.90;86.80;;;;;;5097453;28;20254;-51
2022/09/19 00:59:10;;;;;;;;;;;18.90;87.00;;;;;;5097468;28;19904;-52
2022/09/19 01:01:35;;;;;;;;;;;18.80;86.90;;;;;;5097261;28;19945;-50
2022/09/19 01:04:01;;;;;;;;;;;18.80;86.90;;;;;;5096441;28;20292;-53
2022/09/19 01:06:48;;;;;;;;;;;18.80;87.00;;;;;;5096006;28;19908;-50
2022/09/19 01:09:22;;;;;;;;;;;18.80;86.90;;;;;;5095680;28;20355;-54
2022/09/19 01:12:06;;;;;;;;;;;18.80;86.80;;;;;;5095604;28;19958;-49
2022/09/19 01:14:41;;;;;;;;;;;18.90;87.10;;;;;;5077623;28;19907;-48
2022/09/19 01:17:14;;;;;;;;;;;18.80;86.80;;;;;;5095825;28;19915;-48
2022/09/19 01:20:15;;;;;;;;;;;18.80;86.90;;;;;;5095457;28;20267;-51
2022/09/19 01:22:46;;;;;;;;;;;18.80;86.90;;;;;;5032838;28;19909;-51
2022/09/19 01:25:20;;;;;;;;;;;18.80;87.00;;;;;;5084984;28;19904;-51
2022/09/19 01:27:55;;;;;;;;;;;18.80;87.10;;;;;;5077580;28;19955;-52
2022/09/19 01:30:21;;;;;;;;;;;18.80;87.00;;;;;;5095230;28;19904;-50
2022/09/19 01:32:53;;;;;;;;;;;18.80;87.10;;;;;;5095492;28;20007;-50
2022/09/19 01:35:26;;;;;;;;;;;18.80;86.90;;;;;;5095361;28;19908;-50
2022/09/19 01:38:07;;;;;;;;;;;18.80;86.90;;;;;;5115915;28;19903;-48
2022/09/19 01:40:33;;;;;;;;;;;18.80;87.10;;;;;;5115667;28;19907;-51
2022/09/19 01:42:58;;;;;;;;;;;18.80;87.00;;;;;;5097475;28;19903;-48
2022/09/19 01:45:31;;;;;;;;;;;18.80;86.80;;;;;;5115498;28;19972;-49
2022/09/19 01:48:16;;;;;;;;;;;18.80;87.00;;;;;;5115369;28;20362;-50
2022/09/19 01:50:50;;;;;;;;;;;18.80;87.10;;;;;;5115732;28;19904;-49
2022/09/19 01:53:15;;;;;;;;;;;18.80;87.00;;;;;;5115358;28;20010;-52
2022/09/19 01:55:46;;;;;;;;;;;18.80;86.90;;;;;;5115307;28;19951;-52
2022/09/19 01:58:19;;;;;;;;;;;18.80;86.90;;;;;;5097252;28;19926;-51
2022/09/19 02:00:49;;;;;;;;;;;18.80;87.10;;;;;;5115684;28;19908;-50
2022/09/19 02:03:22;;;;;;;;;;;18.80;87.00;;;;;;5051644;28;1777262;-52
2022/09/19 02:06:11;;;;;;;;;;;18.80;87.00;;;;;;5116486;28;19907;-51
2022/09/19 02:08:44;;;;;;;;;;;18.80;87.20;;;;;;5077834;28;20288;-51
2022/09/19 02:11:14;;;;;;;;;;;18.80;87.10;;;;;;5116089;28;20365;-51
2022/09/19 02:13:44;;;;;;;;;;;18.70;87.20;;;;;;5116255;28;19914;-50
2022/09/19 02:16:12;;;;;;;;;;;18.70;87.20;;;;;;5116589;28;19908;-51
2022/09/19 02:18:58;;;;;;;;;;;18.70;87.00;;;;;;5116088;28;19910;-54
2022/09/19 02:21:28;;;;;;;;;;;18.70;87.20;;;;;;5116019;28;20274;-52
2022/09/19 02:23:55;;;;;;;;;;;18.70;87.10;;;;;;5116095;28;19904;-53
2022/09/19 02:26:22;;;;;;;;;;;18.70;87.10;;;;;;5115730;28;20327;-48
2022/09/19 02:28:54;;;;;;;;;;;18.70;87.10;;;;;;5115743;28;19998;-50
2022/09/19 02:31:24;;;;;;;;;;;18.70;87.10;;;;;;5115694;28;19911;-50
2022/09/19 02:33:50;;;;;;;;;;;18.70;87.10;;;;;;5115056;28;19914;-51
2022/09/19 02:36:18;;;;;;;;;;;18.70;87.10;;;;;;5107134;28;19912;-50
2022/09/19 02:39:09;;;;;;;;;;;18.70;87.30;;;;;;5095459;28;19904;-50
2022/09/19 02:41:59;;;;;;;;;;;18.70;87.40;;;;;;5095430;28;20343;-50
2022/09/19 02:44:36;;;;;;;;;;;18.70;87.40;;;;;;5086972;28;20261;-51
2022/09/19 02:47:02;;;;;;;;;;;18.70;87.40;;;;;;5094982;28;20461;-50
2022/09/19 02:49:30;;;;;;;;;;;18.70;87.40;;;;;;5095475;28;19943;-50
2022/09/19 02:51:58;;;;;;;;;;;18.60;87.40;;;;;;5095169;28;19911;-51
2022/09/19 02:54:26;;;;;;;;;;;18.70;87.30;;;;;;5094763;28;19969;-53
2022/09/19 02:56:54;;;;;;;;;;;18.60;87.50;;;;;;5095022;28;19908;-52
2022/09/19 02:59:23;;;;;;;;;;;18.60;87.30;;;;;;5076867;28;19904;-50
2022/09/19 03:01:51;;;;;;;;;;;18.70;87.40;;;;;;5094681;28;19904;-49
2022/09/19 03:04:20;;;;;;;;;;;18.60;87.30;;;;;;5076636;28;20451;-50
2022/09/19 03:07:00;;;;;;;;;;;18.60;87.40;;;;;;5094662;28;19915;-52
2022/09/19 03:09:30;;;;;;;;;;;18.60;87.50;;;;;;5094776;28;19904;-49
2022/09/19 03:12:07;;;;;;;;;;;18.60;87.40;;;;;;5094797;28;20004;-50
2022/09/19 03:14:33;;;;;;;;;;;18.60;87.40;;;;;;5094732;28;19931;-48
2022/09/19 03:17:00;;;;;;;;;;;18.60;87.50;;;;;;5094569;28;20099;-51
2022/09/19 03:19:27;;;;;;;;;;;18.60;87.50;;;;;;5094377;28;20322;-51
2022/09/19 03:21:54;;;;;;;;;;;18.60;87.50;;;;;;5094645;28;19904;-50
2022/09/19 03:24:20;;;;;;;;;;;18.60;87.50;;;;;;5094387;28;20011;-51
2022/09/19 03:26:45;;;;;;;;;;;18.60;87.50;;;;;;5094589;28;19947;-49
2022/09/19 03:29:11;;;;;;;;;;;18.60;87.50;;;;;;5094530;28;19947;-51
2022/09/19 03:31:36;;;;;;;;;;;18.60;87.50;;;;;;5094547;28;20339;-52
2022/09/19 03:34:03;;;;;;;;;;;18.60;87.50;;;;;;5093911;28;19930;-49
2022/09/19 03:36:29;;;;;;;;;;;18.60;87.40;;;;;;5104425;28;19908;-51
2022/09/19 03:38:55;;;;;;;;;;;18.60;87.40;;;;;;5114446;28;20308;-51
2022/09/19 03:41:22;;;;;;;;;;;18.60;87.40;;;;;;5114723;28;19904;-50
2022/09/19 03:43:48;;;;;;;;;;;18.60;87.40;;;;;;5114622;28;19911;-49
2022/09/19 03:46:15;;;;;;;;;;;18.60;87.40;;;;;;5114157;28;19903;-49
2022/09/19 03:48:44;;;;;;;;;;;18.60;87.40;;;;;;5114144;28;20351;-50
2022/09/19 03:51:10;;;;;;;;;;;18.60;87.50;;;;;;5114449;28;19904;-52
2022/09/19 03:53:36;;;;;;;;;;;18.60;87.50;;;;;;5114553;28;20321;-50
2022/09/19 03:56:02;;;;;;;;;;;18.60;87.60;;;;;;5103958;28;19913;-53
2022/09/19 03:58:30;;;;;;;;;;;18.60;87.50;;;;;;5093212;28;19915;-50
2022/09/19 04:00:56;;;;;;;;;;;18.60;87.50;;;;;;5092282;28;20436;-50
2022/09/19 04:03:23;;;;;;;;;;;18.60;87.40;;;;;;5073585;28;19923;-52
2022/09/19 04:05:50;;;;;;;;;;;18.60;87.40;;;;;;5092191;28;19950;-51
2022/09/19 04:08:15;;;;;;;;;;;18.60;87.40;;;;;;5092530;28;20262;-53
2022/09/19 04:10:42;;;;;;;;;;;18.60;87.50;;;;;;5092211;28;19926;-54
2022/09/19 04:13:08;;;;;;;;;;;18.60;88.20;;;;;;5092090;28;19914;-52
2022/09/19 04:15:33;;;;;;;;;;;18.50;87.60;;;;;;5093589;28;20258;-50
2022/09/19 04:17:59;;;;;;;;;;;18.50;87.60;;;;;;5093982;28;19904;-49
2022/09/19 04:20:29;;;;;;;;;;;18.50;87.70;;;;;;5093675;28;19949;-50
2022/09/19 04:22:55;;;;;;;;;;;18.60;87.60;;;;;;5093558;28;19904;-49
2022/09/19 04:25:20;;;;;;;;;;;18.60;87.70;;;;;;5093926;28;20392;-52
2022/09/19 04:27:46;;;;;;;;;;;18.60;87.70;;;;;;5093793;28;19904;-48
2022/09/19 04:30:15;;;;;;;;;;;18.60;87.70;;;;;;5093860;28;19904;-50
2022/09/19 04:32:42;;;;;;;;;;;18.60;87.70;;;;;;5093668;28;20003;-52
2022/09/19 04:35:08;;;;;;;;;;;18.60;87.70;;;;;;5093621;28;19914;-53
2022/09/19 04:37:33;;;;;;;;;;;18.50;87.60;;;;;;5094587;28;19904;-50
2022/09/19 04:39:59;;;;;;;;;;;18.50;87.70;;;;;;5113712;28;19904;-52
2022/09/19 04:42:24;;;;;;;;;;;18.50;87.80;;;;;;5113649;28;19903;-49
2022/09/19 04:44:53;;;;;;;;;;;18.50;87.70;;;;;;5113582;28;19904;-50
2022/09/19 04:47:19;;;;;;;;;;;18.50;88.20;;;;;;5113878;28;19990;-48
2022/09/19 04:49:44;;;;;;;;;;;18.50;87.60;;;;;;5113889;28;20329;-50
2022/09/19 04:52:12;;;;;;;;;;;18.50;87.60;;;;;;5113876;28;20342;-50
2022/09/19 04:54:38;;;;;;;;;;;18.60;87.60;;;;;;5113473;28;20342;-50
2022/09/19 04:57:05;;;;;;;;;;;18.60;87.60;;;;;;5114791;28;19907;-49
2022/09/19 04:59:32;;;;;;;;;;;18.50;87.60;;;;;;5117426;28;19904;-49
2022/09/19 05:01:58;;;;;;;;;;;18.50;87.60;;;;;;5117546;28;19904;-49
2022/09/19 05:04:24;;;;;;;;;;;18.50;87.70;;;;;;5098879;28;19955;-48
2022/09/19 05:06:51;;;;;;;;;;;18.50;87.70;;;;;;5117316;28;20349;-52
2022/09/19 05:09:17;;;;;;;;;;;18.50;87.70;;;;;;5116747;28;20358;-49
2022/09/19 05:11:46;;;;;;;;;;;18.50;87.70;;;;;;5116753;28;19911;-53
2022/09/19 05:14:14;;;;;;;;;;;18.50;87.70;;;;;;5117242;28;19907;-51
2022/09/19 05:16:40;;;;;;;;;;;18.50;87.70;;;;;;5117052;28;19912;-51
2022/09/19 05:19:06;;;;;;;;;;;18.50;87.70;;;;;;5116775;28;19987;-48
2022/09/19 05:21:33;;;;;;;;;;;18.50;87.60;;;;;;5116808;28;20329;-46
2022/09/19 05:23:58;;;;;;;;;;;18.50;87.60;;;;;;5116811;28;19995;-49
2022/09/19 05:26:24;;;;;;;;;;;18.50;87.60;;;;;;5116827;28;19943;-50
2022/09/19 05:28:50;;;;;;;;;;;18.50;87.60;;;;;;5098379;28;19904;-49
2022/09/19 05:31:19;;;;;;;;;;;18.50;87.60;;;;;;5117174;28;20402;-52
2022/09/19 05:33:48;;;;;;;;;;;18.50;87.60;;;;;;5116605;28;19908;-50
2022/09/19 05:36:13;;;;;;;;;;;18.50;87.60;;;;;;5108704;28;19916;-52
2022/09/19 05:38:39;;;;;;;;;;;18.50;87.60;;;;;;5095989;28;19908;-53
2022/09/19 05:41:05;;;;;;;;;;;18.50;87.60;;;;;;5095955;28;19904;-52
2022/09/19 05:43:31;;;;;;;;;;;18.50;87.60;;;;;;5096059;28;19904;-52
2022/09/19 05:45:56;;;;;;;;;;;18.50;87.50;;;;;;5077836;28;19907;-53
2022/09/19 05:48:23;;;;;;;;;;;18.50;87.50;;;;;;5095713;28;20368;-53
2022/09/19 05:50:49;;;;;;;;;;;18.50;87.50;;;;;;5096216;28;19904;-52
2022/09/19 05:55:59;;;;;;;;;;;18.60;87.50;;;;;;5095922;28;20358;-48
2022/09/19 05:58:26;;;;;;;;;;;18.50;87.50;;;;;;5095841;28;19908;-50
2022/09/19 06:00:52;;;;;;;;;;;18.50;87.50;;;;;;5096196;28;19904;-49
2022/09/19 06:03:17;;;;;;;;;;;18.50;87.50;;;;;;5073337;28;19923;-51
2022/09/19 06:05:45;;;;;;;;;;;18.50;87.50;;;;;;5094223;28;20358;-51
2022/09/19 06:08:11;;;;;;;;;;;18.50;87.50;;;;;;5094478;28;19904;-52
2022/09/19 06:10:38;;;;;;;;;;;18.60;87.40;;;;;;5096903;28;20330;-51
2022/09/19 06:13:04;;;;;;;;;;;18.50;87.40;;;;;;5092201;28;19924;-54
2022/09/19 06:15:30;;;;;;;;;;;18.60;87.70;;;;;;5095417;28;19916;-49
2022/09/19 06:17:58;;;;;;;;;;;18.60;87.80;;;;;;5083823;28;20007;-50
2022/09/19 06:20:24;;;;;;;;;;;18.60;87.70;;;;;;5107576;28;20277;-48
2022/09/19 06:22:55;;;;;;;;;;;18.60;87.60;;;;;;5094184;28;19920;-51
2022/09/19 06:25:21;;;;;;;;;;;18.60;87.60;;;;;;5096750;28;20414;-50
2022/09/19 06:27:53;;;;;;;;;;;18.50;87.60;;;;;;5084818;28;19947;-52
2022/09/19 06:30:18;;;;;;;;;;;18.50;87.60;;;;;;5093302;28;19970;-53
2022/09/19 06:32:44;;;;;;;;;;;18.50;87.50;;;;;;5088040;28;20354;-53
2022/09/19 06:35:09;;;;;;;;;;;18.60;87.50;;;;;;5096549;28;19916;-48
2022/09/19 06:37:35;;;;;;;;;;;18.60;87.60;;;;;;5108687;28;20278;-49
2022/09/19 06:40:01;;;;;;;;;;;18.50;87.90;;;;;;5105863;28;19912;-49
2022/09/19 06:42:26;;;;;;;;;;;18.50;88.20;;;;;;5111230;28;19954;-49
2022/09/19 06:44:52;;;;;;;;;;;18.50;88.40;;;;;;5109939;28;19912;-49
2022/09/19 06:47:17;;;;;;;;;;;18.50;88.50;;;;;;5106535;28;19912;-47
2022/09/19 06:49:43;;;;;;;;;;;18.50;88.60;;;;;;5106027;28;20353;-47
2022/09/19 06:52:08;;;;;;;;;;;18.50;88.50;;;;;;5093108;28;19918;-48
2022/09/19 06:54:34;;;;;;;;;;;18.50;88.20;;;;;;5114995;28;19919;-48
2022/09/19 06:57:00;;;;;;;;;;;18.60;88.00;;;;;;5104374;28;19916;-49
2022/09/19 06:59:25;;;;;;;;;;;18.50;88.30;;;;;;5110057;28;20319;-47
2022/09/19 07:01:51;;;;;;;;;;;18.50;88.20;;;;;;5107977;28;19912;-50
2022/09/19 07:04:16;;;;;;;;;;;18.50;88.30;;;;;;5114698;28;20327;-47
2022/09/19 07:06:42;;;;;;;;;;;18.50;88.20;;;;;;5092516;28;19943;-52
2022/09/19 07:09:07;;;;;;;;;;;18.50;88.20;;;;;;5106980;28;19919;-49
2022/09/19 07:11:35;;;;;;;;;;;18.50;88.20;;;;;;5102188;28;19912;-50
2022/09/19 07:14:01;;;;;;;;;;;18.50;88.30;;;;;;5086303;28;19915;-46
2022/09/19 07:16:26;;;;;;;;;;;18.50;88.20;;;;;;5112140;28;19916;-47
2022/09/19 07:18:52;;;;;;;;;;;18.60;88.10;;;;;;5105064;28;19920;-50
2022/09/19 07:21:17;;;;;;;;;;;18.50;88.00;;;;;;5099616;28;19918;-52
2022/09/19 07:23:43;;;;;;;;;;;18.60;88.20;;;;;;5111957;28;20381;-48
2022/09/19 07:26:09;;;;;;;;;;;18.60;88.20;;;;;;5114681;28;19959;-46
2022/09/19 07:28:34;;;;;;;;;;;18.60;88.20;;;;;;5102478;28;19913;-49
2022/09/19 07:31:00;;;;;;;;;;;18.50;88.10;;;;;;5110919;28;19918;-49
2022/09/19 07:33:28;;;;;;;;;;;18.60;88.20;;;;;;5104736;28;19919;-46
2022/09/19 07:35:54;;;;;;;;;;;18.60;88.20;;;;;;5102431;28;19976;-52
2022/09/19 07:38:20;;;;;;;;;;;18.60;88.20;;;;;;5093608;28;19912;-48
2022/09/19 07:40:46;;;;;;;;;;;18.50;88.00;;;;;;5102005;28;19938;-48
2022/09/19 07:43:13;;;;;;;;;;;18.60;88.10;;;;;;5114323;28;19960;-48
2022/09/19 07:45:41;;;;;;;;;;;18.60;88.20;;;;;;5111807;28;19912;-50
2022/09/19 07:48:07;;;;;;;;;;;18.60;88.20;;;;;;5096259;28;19915;-52
2022/09/19 07:50:32;;;;;;;;;;;18.60;88.20;;;;;;5089811;28;20277;-49
2022/09/19 07:53:02;;;;;;;;;;;18.60;88.20;;;;;;5114103;28;19919;-51
2022/09/19 07:55:28;;;;;;;;;;;18.60;88.10;;;;;;5095883;28;20315;-53
2022/09/19 07:57:57;;;;;;;;;;;18.60;88.10;;;;;;5114139;28;20346;-53
2022/09/19 08:00:27;;;;;;;;;;;18.60;88.00;;;;;;5071819;28;20480;-46
2022/09/19 08:02:56;;;;;;;;;;;18.60;88.00;;;;;;5106726;28;19912;-47
2022/09/19 08:05:22;;;;;;;;;;;18.60;87.80;;;;;;5096314;28;20376;-53
2022/09/19 08:07:47;;;;;;;;;;;18.70;87.60;;;;;;5090503;28;19962;-50
2022/09/19 08:10:15;;;;;;;;;;;18.70;87.50;;;;;;5114077;28;19961;-48
2022/09/19 08:12:43;;;;;;;;;;;18.60;87.60;;;;;;5093678;28;20002;-51
2022/09/19 08:15:08;;;;;;;;;;;18.60;87.60;;;;;;5112379;28;19923;-49
2022/09/19 08:17:36;;;;;;;;;;;18.60;87.60;;;;;;5108239;28;19912;-49
2022/09/19 08:20:02;;;;;;;;;;;18.70;87.50;;;;;;5109819;28;19916;-52
2022/09/19 08:22:28;;;;;;;;;;;18.70;87.60;;;;;;5114071;28;19953;-49
2022/09/19 08:24:53;;;;;;;;;;;18.70;87.70;;;;;;5093602;28;19919;-50
2022/09/19 08:27:19;;;;;;;;;;;18.70;87.70;;;;;;5109939;28;20324;-51
2022/09/19 08:29:45;;;;;;;;;;;18.70;87.70;;;;;;5113938;28;19930;-50
2022/09/19 08:32:11;;;;;;;;;;;18.70;87.60;;;;;;5112659;28;20379;-54
2022/09/19 08:34:37;;;;;;;;;;;18.70;87.60;;;;;;5117186;28;20011;-48
2022/09/19 08:37:02;;;;;;;;;;;18.60;87.60;;;;;;5113671;28;19923;-50
2022/09/19 08:39:28;;;;;;;;;;;18.70;87.70;;;;;;5113219;28;19943;-52
2022/09/19 08:42:09;;;;;;;;;;;18.70;87.70;;;;;;5117310;28;19998;-52
2022/09/19 08:44:53;;;;;;;;;;;18.70;87.70;;;;;;5112504;28;19912;-52
2022/09/19 08:47:21;;;;;;;;;;;18.60;87.60;;;;;;5086849;28;20007;-52
2022/09/19 08:49:53;;;;;;;;;;;18.60;87.60;;;;;;5079353;28;19958;-51
2022/09/19 08:52:31;;;;;;;;;;;18.70;87.70;;;;;;5107063;28;19918;-52
2022/09/19 08:54:57;;;;;;;;;;;18.60;87.60;;;;;;5109368;28;20298;-51
2022/09/19 08:57:31;;;;;;;;;;;18.70;87.70;;;;;;5113764;28;20286;-53
2022/09/19 08:59:59;;;;;;;;;;;18.70;87.70;;;;;;5115400;28;19908;-52
2022/09/19 09:02:41;;;;;;;;;;;18.70;87.70;;;;;;5117399;28;20385;-52
2022/09/19 09:05:11;;;;;;;;;;;18.70;87.70;;;;;;5114548;28;19924;-51
2022/09/19 09:07:43;;;;;;;;;;;18.70;87.70;;;;;;5111807;28;19927;-50
2022/09/19 09:10:18;;;;;;;;;;;18.70;87.70;;;;;;5113544;28;20006;-51
2022/09/19 09:12:44;;;;;;;;;;;18.70;87.80;;;;;;5099875;28;19914;-53
2022/09/19 09:15:36;;;;;;;;;;;18.70;87.80;;;;;;5078566;28;20003;-47
2022/09/19 09:18:08;;;;;;;;;;;18.70;87.70;;;;;;5074286;28;20029;-47
2022/09/19 09:20:43;;;;;;;;;;;18.70;87.70;;;;;;5088209;28;20296;-47
2022/09/19 09:23:15;;;;;;;;;;;18.70;87.50;;;;;;5076119;28;19920;-49
2022/09/19 09:25:44;;;;;;;;;;;18.70;87.50;;;;;;5084825;28;19908;-49
2022/09/19 09:28:12;;;;;;;;;;;18.70;87.50;;;;;;5096094;28;19977;-50
2022/09/19 09:30:40;;;;;;;;;;;18.70;87.70;;;;;;5096554;28;19912;-49
2022/09/19 09:33:06;;;;;;;;;;;18.70;87.40;;;;;;5096061;28;19935;-52
2022/09/19 09:35:39;;;;;;;;;;;18.70;87.50;;;;;;5098808;28;20251;-48
2022/09/19 09:38:12;;;;;;;;;;;18.70;87.50;;;;;;5105728;28;19914;-51
2022/09/19 09:43:28;;;;;;;;;;;18.70;87.50;;;;;;5095846;28;19915;-50
2022/09/19 09:45:54;;;;;;;;;;;18.70;87.50;;;;;;5095981;28;19994;-49
2022/09/19 09:48:32;;;;;;;;;;;18.70;87.50;;;;;;5096175;28;19908;-47
2022/09/19 09:51:06;;;;;;;;;;;18.70;87.50;;;;;;5077856;28;20351;-50
2022/09/19 09:53:32;;;;;;;;;;;18.70;87.60;;;;;;5096143;28;19919;-51
2022/09/19 09:56:15;;;;;;;;;;;18.80;87.60;;;;;;5077807;28;19912;-48
2022/09/19 09:59:10;;;;;;;;;;;18.80;87.50;;;;;;5095886;28;20347;-48
2022/09/19 10:04:37;;;;;;;;;;;18.80;87.50;;;;;;5095877;28;19966;-49
2022/09/19 10:07:14;;;;;;;;;;;18.80;87.50;;;;;;5095566;28;19973;-49
2022/09/19 10:09:42;;;;;;;;;;;18.80;87.50;;;;;;5095654;28;19908;-47
2022/09/19 10:12:15;;;;;;;;;;;18.80;87.60;;;;;;5095779;28;19908;-46
2022/09/19 10:14:41;;;;;;;;;;;18.80;87.50;;;;;;5065988;28;19924;-47
2022/09/19 10:17:07;;;;;;;;;;;18.80;87.50;;;;;;5109411;28;19916;-47
2022/09/19 10:19:40;;;;;;;;;;;18.80;87.60;;;;;;5116168;28;19908;-51
2022/09/19 10:22:14;;;;;;;;;;;18.80;87.60;;;;;;5116083;28;19916;-47
2022/09/19 10:24:41;;;;;;;;;;;18.80;87.60;;;;;;5077175;28;19965;-49
2022/09/19 10:27:11;;;;;;;;;;;18.80;88.10;;;;;;5095103;28;19908;-49
2022/09/19 10:29:47;;;;;;;;;;;18.80;87.50;;;;;;5095294;28;20426;-47
2022/09/19 10:32:13;;;;;;;;;;;18.80;87.60;;;;;;5095242;28;20355;-47
2022/09/19 10:34:42;;;;;;;;;;;18.80;87.60;;;;;;5095338;28;19912;-48
2022/09/19 10:37:11;;;;;;;;;;;18.80;87.60;;;;;;5110723;28;20368;-47
2022/09/19 10:39:42;;;;;;;;;;;18.80;87.50;;;;;;5111865;28;19915;-50
2022/09/19 10:42:32;;;;;;;;;;;18.80;87.50;;;;;;5095208;28;19923;-47
2022/09/19 10:44:59;;;;;;;;;;;18.80;87.60;;;;;;5094962;28;19908;-49
2022/09/19 10:47:27;;;;;;;;;;;18.80;87.60;;;;;;5095115;28;19915;-46
2022/09/19 10:49:59;;;;;;;;;;;18.80;87.60;;;;;;5095066;28;19908;-48
2022/09/19 10:52:30;;;;;;;;;;;18.80;87.60;;;;;;5095035;28;20420;-50
2022/09/19 10:54:59;;;;;;;;;;;18.80;87.60;;;;;;5094312;28;19912;-47
2022/09/19 10:57:28;;;;;;;;;;;18.80;87.70;;;;;;5094534;28;19947;-49
2022/09/19 10:59:54;;;;;;;;;;;18.80;87.60;;;;;;5094612;28;19915;-50
2022/09/19 11:02:27;;;;;;;;;;;18.80;87.60;;;;;;5076784;28;19951;-50
2022/09/19 11:04:54;;;;;;;;;;;18.80;87.60;;;;;;5094414;28;19920;-46
2022/09/19 11:07:23;;;;;;;;;;;18.80;87.60;;;;;;5103222;28;19957;-51
2022/09/19 11:09:53;;;;;;;;;;;18.80;87.60;;;;;;5096845;28;19907;-52
2022/09/19 11:12:19;;;;;;;;;;;18.70;87.60;;;;;;5114659;28;20273;-48
2022/09/19 11:14:48;;;;;;;;;;;18.70;87.50;;;;;;5101238;28;19912;-48
2022/09/19 11:17:20;;;;;;;;;;;18.70;87.50;;;;;;5094388;28;19999;-48
2022/09/19 11:19:48;;;;;;;;;;;18.70;87.50;;;;;;5094453;28;20397;-51
2022/09/19 11:22:26;;;;;;;;;;;18.70;88.00;;;;;;5076102;28;20366;-46
2022/09/19 11:25:10;;;;;;;;;;;18.70;87.50;;;;;;5094337;28;19908;-48
2022/09/19 11:27:36;;;;;;;;;;;18.80;87.50;;;;;;5093762;28;19912;-47
2022/09/19 11:30:11;;;;;;;;;;;18.80;87.40;;;;;;5092971;28;19970;-47
2022/09/19 11:32:49;;;;;;;;;;;18.80;87.40;;;;;;5080866;28;19966;-50
2022/09/19 11:35:25;;;;;;;;;;;18.80;87.30;;;;;;5098883;28;19976;-48
2022/09/19 11:38:09;;;;;;;;;;;18.80;87.20;;;;;;5099023;28;19912;-46
2022/09/19 11:40:52;;;;;;;;;;;18.80;87.10;;;;;;5110289;28;19912;-50
2022/09/19 11:43:20;;;;;;;;;;;18.80;87.10;;;;;;5114479;28;19973;-48
2022/09/19 11:45:45;;;;;;;;;;;18.80;87.00;;;;;;5108902;28;19919;-48
2022/09/19 11:48:45;;;;;;;;;;;18.80;87.00;;;;;;5085372;28;19919;-47
2022/09/19 11:51:29;;;;;;;;;;;18.90;87.00;;;;;;5106879;28;19915;-46
2022/09/19 11:53:56;;;;;;;;;;;18.90;87.00;;;;;;5093721;28;20011;-50
2022/09/19 11:56:35;;;;;;;;;;;18.80;86.90;;;;;;5083493;28;19919;-52
2022/09/19 11:59:03;;;;;;;;;;;18.90;86.90;;;;;;5109688;28;19912;-46
2022/09/19 12:01:38;;;;;;;;;;;18.90;86.80;;;;;;5112780;28;19998;-51
2022/09/19 12:04:09;;;;;;;;;;;18.90;86.90;;;;;;5079097;28;19973;-50
2022/09/19 12:06:54;;;;;;;;;;;18.90;86.90;;;;;;5089716;28;19912;-49
2022/09/19 12:09:25;;;;;;;;;;;18.90;87.00;;;;;;5097717;28;19908;-48
2022/09/19 12:11:58;;;;;;;;;;;18.90;87.00;;;;;;5108681;28;20006;-54
2022/09/19 12:14:42;;;;;;;;;;;18.90;87.00;;;;;;5118589;28;19911;-51
2022/09/19 12:17:10;;;;;;;;;;;18.90;87.10;;;;;;5100813;28;20019;-51
2022/09/19 12:19:38;;;;;;;;;;;18.90;87.10;;;;;;5079571;28;19919;-51
2022/09/19 12:22:14;;;;;;;;;;;19.00;87.10;;;;;;5098712;28;19918;-51
2022/09/19 12:24:55;;;;;;;;;;;18.90;87.10;;;;;;5097584;28;20400;-47
2022/09/19 12:27:34;;;;;;;;;;;18.90;87.10;;;;;;5108218;28;19912;-48
2022/09/19 12:30:05;;;;;;;;;;;19.00;87.10;;;;;;5117767;28;19912;-48
2022/09/19 12:32:49;;;;;;;;;;;19.00;87.10;;;;;;5117635;28;20002;-50
2022/09/19 12:35:15;;;;;;;;;;;19.00;87.20;;;;;;5117420;28;19938;-46
2022/09/19 12:38:08;;;;;;;;;;;19.00;87.20;;;;;;5097442;28;19996;-51
2022/09/19 12:40:47;;;;;;;;;;;19.00;87.20;;;;;;5054651;28;19998;-50
2022/09/19 12:43:27;;;;;;;;;;;19.00;87.20;;;;;;5077392;28;20236;-51
2022/09/19 12:46:09;;;;;;;;;;;19.00;87.20;;;;;;5077019;28;20397;-51
2022/09/19 12:48:49;;;;;;;;;;;19.00;87.30;;;;;;5089910;28;19919;-51
2022/09/19 12:51:21;;;;;;;;;;;19.00;87.30;;;;;;5103987;28;19948;-51
2022/09/19 12:54:01;;;;;;;;;;;19.00;87.30;;;;;;5097003;28;19919;-48
2022/09/19 12:56:30;;;;;;;;;;;19.00;87.30;;;;;;5100870;28;19924;-51
2022/09/19 12:59:05;;;;;;;;;;;19.00;87.30;;;;;;5097377;28;19916;-49
2022/09/19 13:01:39;;;;;;;;;;;19.00;87.30;;;;;;5117433;28;19908;-50
2022/09/19 13:04:04;;;;;;;;;;;19.00;87.30;;;;;;5116987;28;19970;-49
2022/09/19 13:06:36;;;;;;;;;;;19.00;87.40;;;;;;5098934;28;19951;-48
2022/09/19 13:09:14;;;;;;;;;;;19.00;87.30;;;;;;5106804;28;19912;-50
2022/09/19 13:11:41;;;;;;;;;;;19.00;87.30;;;;;;5105368;28;20363;-50
2022/09/19 13:14:11;;;;;;;;;;;19.00;87.40;;;;;;5111353;28;20357;-48
2022/09/19 13:23:29;;;;;;;;;;;19.00;87.30;;;;;;5116648;28;19920;-49
2022/09/19 13:25:43;;;;;;;;;;;19.00;87.40;;;;;;5096222;28;20369;-49
2022/09/19 13:28:19;;;;;;;;;;;19.00;87.30;;;;;;5096064;28;19998;-49
2022/09/19 13:31:20;;;;;;;;;;;19.00;87.30;;;;;;5096288;28;19908;-48
2022/09/19 13:33:48;;;;;;;;;;;19.00;87.30;;;;;;5033322;28;19967;-52
2022/09/19 13:36:22;;;;;;;;;;;19.00;87.40;;;;;;5083530;28;20007;-47
2022/09/19 13:38:58;;;;;;;;;;;19.00;87.40;;;;;;5117171;28;19958;-48
2022/09/19 13:41:27;;;;;;;;;;;19.00;87.40;;;;;;5103997;28;20010;-46
2022/09/19 13:44:11;;;;;;;;;;;19.00;87.40;;;;;;5096141;28;19912;-49
2022/09/19 13:46:48;;;;;;;;;;;19.00;87.40;;;;;;5095994;28;19934;-47
2022/09/19 13:49:18;;;;;;;;;;;19.00;87.40;;;;;;5112733;28;20324;-49
2022/09/19 13:51:50;;;;;;;;;;;19.00;87.30;;;;;;5110395;28;19957;-48
2022/09/19 13:54:23;;;;;;;;;;;19.00;87.30;;;;;;5095769;28;20047;-47
2022/09/19 13:57:01;;;;;;;;;;;19.00;87.30;;;;;;5101617;28;20316;-48
2022/09/19 13:59:31;;;;;;;;;;;19.00;87.40;;;;;;5109271;28;20009;-50
2022/09/19 14:01:57;;;;;;;;;;;19.10;87.30;;;;;;5084146;28;19922;-48
2022/09/19 14:07:41;;;;;;;;;;;19.00;87.30;;;;;;5028897;28;20300;-49
2022/09/19 14:10:12;;;;;;;;;;;19.10;87.30;;;;;;5035760;28;19909;-50
2022/09/19 14:12:47;;;;;;;;;;;19.00;87.30;;;;;;5059851;28;19957;-50
2022/09/19 14:15:31;;;;;;;;;;;19.10;87.30;;;;;;5084305;28;19912;-50
2022/09/19 14:18:15;;;;;;;;;;;19.00;87.30;;;;;;5095352;28;19908;-52
2022/09/19 14:20:50;;;;;;;;;;;19.10;87.30;;;;;;5094995;28;20262;-49
2022/09/19 14:23:18;;;;;;;;;;;19.00;87.30;;;;;;5097650;28;20270;-47
2022/09/19 14:25:54;;;;;;;;;;;19.10;87.40;;;;;;5115500;28;19904;-53
2022/09/19 14:28:30;;;;;;;;;;;19.10;87.30;;;;;;5115446;28;20006;-47
2022/09/19 14:31:07;;;;;;;;;;;19.10;87.30;;;;;;5111152;28;20266;-48
2022/09/19 14:33:41;;;;;;;;;;;19.10;87.30;;;;;;5094654;28;20293;-50
2022/09/19 14:36:07;;;;;;;;;;;19.10;87.40;;;;;;5101740;28;19930;-49
2022/09/19 14:38:56;;;;;;;;;;;19.10;87.40;;;;;;5103902;28;20224;-51
2022/09/19 14:41:36;;;;;;;;;;;19.10;87.30;;;;;;5065874;28;19904;-49
2022/09/19 14:44:15;;;;;;;;;;;19.10;87.30;;;;;;5094711;28;19904;-48
2022/09/19 14:46:43;;;;;;;;;;;19.10;87.30;;;;;;5095027;28;19912;-49
2022/09/19 14:49:12;;;;;;;;;;;19.10;87.30;;;;;;5094936;28;19905;-48
2022/09/19 14:51:46;;;;;;;;;;;19.10;87.30;;;;;;5094074;28;19904;-48